SULAYMANIYAH INTERNATIONAL AIRPORT
  • SulyAir
  • SulyAir
1 1
Arrival

ArrivalsMore >>

Departure

DeparturesMore >>

TAF

TAF ORSU 310500Z 3106/0106 24014KT 4000 RA BR SCT005 BKN030 BKN070
  TEMPO 3106/3108 2500 TS FEW025CB
  TEMPO 3110/3115 G25KT 2000 TSSHRA SCT025CB
  BECMG 3116/3118 13010KT 6000 -RA =

METARs

METAR ORSU 310600Z 28010KT 4000 BR BKN040 BKN070 10/10 Q1010=